sensor_id;sensor_type;location;lat;lon;timestamp;P1;durP1;ratioP1;P2;durP2;ratioP2
43998;SDS011;51319;52.162;5.302;2022-08-01T00:11:47;8.13;;;4.57;;
43998;SDS011;51319;52.162;5.302;2022-08-01T00:14:25;7.22;;;4.45;;
43998;SDS011;51319;52.162;5.302;2022-08-01T00:16:58;9.07;;;4.45;;
43998;SDS011;51319;52.162;5.302;2022-08-01T00:19:32;6.78;;;4.80;;
43998;SDS011;51319;52.162;5.302;2022-08-01T00:21:58;7.95;;;4.68;;
43998;SDS011;51319;52.162;5.302;2022-08-01T00:24:24;5.35;;;4.68;;
43998;SDS011;51319;52.162;5.302;2022-08-01T00:30:53;5.53;;;4.40;;
43998;SDS011;51319;52.162;5.302;2022-08-01T00:33:19;12.35;;;4.78;;
43998;SDS011;51319;52.162;5.302;2022-08-01T00:35:46;9.40;;;5.10;;
43998;SDS011;51319;52.162;5.302;2022-08-01T00:44:59;10.35;;;5.45;;
43998;SDS011;51319;52.162;5.302;2022-08-01T00:47:31;10.57;;;5.63;;
43998;SDS011;51319;52.162;5.302;2022-08-01T00:49:57;7.85;;;5.55;;
43998;SDS011;51319;52.162;5.302;2022-08-01T00:52:23;7.45;;;5.63;;
43998;SDS011;51319;52.162;5.302;2022-08-01T01:06:51;10.10;;;6.05;;
43998;SDS011;51319;52.162;5.302;2022-08-01T01:14:05;11.18;;;6.15;;
43998;SDS011;51319;52.162;5.302;2022-08-01T01:16:39;8.63;;;5.82;;
43998;SDS011;51319;52.162;5.302;2022-08-01T01:32:50;12.38;;;7.82;;
43998;SDS011;51319;52.162;5.302;2022-08-01T01:35:23;11.48;;;7.05;;
43998;SDS011;51319;52.162;5.302;2022-08-01T01:38:07;12.55;;;7.50;;
43998;SDS011;51319;52.162;5.302;2022-08-01T01:40:36;12.50;;;7.78;;
43998;SDS011;51319;52.162;5.302;2022-08-01T01:43:03;13.00;;;7.43;;
43998;SDS011;51319;52.162;5.302;2022-08-01T01:45:34;14.93;;;8.18;;
43998;SDS011;51319;52.162;5.302;2022-08-01T01:48:01;12.02;;;7.55;;
43998;SDS011;51319;52.162;5.302;2022-08-01T01:50:28;12.80;;;8.07;;
43998;SDS011;51319;52.162;5.302;2022-08-01T01:52:56;12.90;;;8.02;;
43998;SDS011;51319;52.162;5.302;2022-08-01T01:55:24;12.40;;;8.00;;
43998;SDS011;51319;52.162;5.302;2022-08-01T01:57:52;14.88;;;8.02;;
43998;SDS011;51319;52.162;5.302;2022-08-01T02:00:21;13.20;;;8.30;;
43998;SDS011;51319;52.162;5.302;2022-08-01T02:02:48;13.60;;;7.82;;
43998;SDS011;51319;52.162;5.302;2022-08-01T02:05:17;15.65;;;8.40;;
43998;SDS011;51319;52.162;5.302;2022-08-01T02:07:44;14.82;;;8.10;;
43998;SDS011;51319;52.162;5.302;2022-08-01T02:10:14;12.65;;;7.78;;
43998;SDS011;51319;52.162;5.302;2022-08-01T02:12:44;12.85;;;7.72;;
43998;SDS011;51319;52.162;5.302;2022-08-01T02:15:13;16.20;;;8.25;;
43998;SDS011;51319;52.162;5.302;2022-08-01T02:17:41;15.00;;;7.70;;
43998;SDS011;51319;52.162;5.302;2022-08-01T02:20:17;11.07;;;7.70;;
43998;SDS011;51319;52.162;5.302;2022-08-01T02:22:50;13.55;;;7.18;;
43998;SDS011;51319;52.162;5.302;2022-08-01T02:25:37;12.93;;;8.25;;
43998;SDS011;51319;52.162;5.302;2022-08-01T02:29:17;12.05;;;7.78;;
43998;SDS011;51319;52.162;5.302;2022-08-01T02:31:26;13.68;;;8.70;;
43998;SDS011;51319;52.162;5.302;2022-08-01T02:34:16;13.32;;;8.05;;
43998;SDS011;51319;52.162;5.302;2022-08-01T02:36:45;14.07;;;9.23;;
43998;SDS011;51319;52.162;5.302;2022-08-01T02:39:14;17.52;;;8.80;;
43998;SDS011;51319;52.162;5.302;2022-08-01T02:41:48;18.42;;;10.25;;
43998;SDS011;51319;52.162;5.302;2022-08-01T02:44:24;15.38;;;9.98;;
43998;SDS011;51319;52.162;5.302;2022-08-01T02:46:56;13.20;;;9.07;;
43998;SDS011;51319;52.162;5.302;2022-08-01T02:49:31;14.93;;;9.07;;
43998;SDS011;51319;52.162;5.302;2022-08-01T02:52:05;15.30;;;9.60;;
43998;SDS011;51319;52.162;5.302;2022-08-01T02:54:34;16.67;;;9.27;;
43998;SDS011;51319;52.162;5.302;2022-08-01T03:00:15;13.90;;;9.00;;
43998;SDS011;51319;52.162;5.302;2022-08-01T03:05:37;16.65;;;9.43;;
43998;SDS011;51319;52.162;5.302;2022-08-01T03:08:08;16.05;;;8.35;;
43998;SDS011;51319;52.162;5.302;2022-08-01T03:10:40;17.42;;;8.52;;
43998;SDS011;51319;52.162;5.302;2022-08-01T03:13:10;12.07;;;8.07;;
43998;SDS011;51319;52.162;5.302;2022-08-01T03:15:39;14.55;;;8.57;;
43998;SDS011;51319;52.162;5.302;2022-08-01T03:18:07;13.13;;;8.20;;
43998;SDS011;51319;52.162;5.302;2022-08-01T03:20:36;12.27;;;7.22;;
43998;SDS011;51319;52.162;5.302;2022-08-01T03:23:06;10.23;;;6.97;;
43998;SDS011;51319;52.162;5.302;2022-08-01T03:25:34;14.52;;;7.93;;
43998;SDS011;51319;52.162;5.302;2022-08-01T03:28:04;12.38;;;7.05;;
43998;SDS011;51319;52.162;5.302;2022-08-01T03:30:32;15.10;;;7.55;;
43998;SDS011;51319;52.162;5.302;2022-08-01T03:33:04;11.18;;;7.35;;
43998;SDS011;51319;52.162;5.302;2022-08-01T03:35:33;12.95;;;7.47;;
43998;SDS011;51319;52.162;5.302;2022-08-01T03:38:03;13.80;;;7.63;;
43998;SDS011;51319;52.162;5.302;2022-08-01T03:41:02;11.07;;;6.97;;
43998;SDS011;51319;52.162;5.302;2022-08-01T03:43:55;12.95;;;8.05;;
43998;SDS011;51319;52.162;5.302;2022-08-01T03:46:32;14.07;;;8.02;;
43998;SDS011;51319;52.162;5.302;2022-08-01T03:49:25;10.20;;;7.45;;
43998;SDS011;51319;52.162;5.302;2022-08-01T03:52:02;13.27;;;8.23;;
43998;SDS011;51319;52.162;5.302;2022-08-01T03:54:35;12.88;;;8.10;;
43998;SDS011;51319;52.162;5.302;2022-08-01T04:01:33;11.70;;;7.53;;
43998;SDS011;51319;52.162;5.302;2022-08-01T04:04:00;14.18;;;7.82;;
43998;SDS011;51319;52.162;5.302;2022-08-01T04:06:27;10.60;;;7.55;;
43998;SDS011;51319;52.162;5.302;2022-08-01T04:09:10;11.82;;;8.30;;
43998;SDS011;51319;52.162;5.302;2022-08-01T04:19:43;10.15;;;7.18;;
43998;SDS011;51319;52.162;5.302;2022-08-01T04:29:52;10.48;;;6.95;;
43998;SDS011;51319;52.162;5.302;2022-08-01T04:32:21;13.27;;;7.03;;
43998;SDS011;51319;52.162;5.302;2022-08-01T04:54:50;7.05;;;3.28;;
43998;SDS011;51319;52.162;5.302;2022-08-01T04:57:17;4.00;;;2.75;;
43998;SDS011;51319;52.162;5.302;2022-08-01T04:59:43;4.60;;;2.65;;
43998;SDS011;51319;52.162;5.302;2022-08-01T05:20:39;4.80;;;3.05;;
43998;SDS011;51319;52.162;5.302;2022-08-01T05:23:07;6.93;;;2.70;;
43998;SDS011;51319;52.162;5.302;2022-08-01T05:25:43;3.35;;;2.38;;
43998;SDS011;51319;52.162;5.302;2022-08-01T05:28:24;3.00;;;2.70;;
43998;SDS011;51319;52.162;5.302;2022-08-01T05:30:50;4.97;;;3.28;;
43998;SDS011;51319;52.162;5.302;2022-08-01T05:33:20;5.05;;;2.40;;
43998;SDS011;51319;52.162;5.302;2022-08-01T05:35:47;2.78;;;2.58;;
43998;SDS011;51319;52.162;5.302;2022-08-01T05:38:16;4.60;;;3.03;;
43998;SDS011;51319;52.162;5.302;2022-08-01T05:40:42;3.35;;;2.30;;
43998;SDS011;51319;52.162;5.302;2022-08-01T05:43:08;3.13;;;2.20;;
43998;SDS011;51319;52.162;5.302;2022-08-01T05:45:35;2.88;;;2.45;;
43998;SDS011;51319;52.162;5.302;2022-08-01T05:48:02;6.50;;;2.90;;
43998;SDS011;51319;52.162;5.302;2022-08-01T05:50:28;4.68;;;3.22;;
43998;SDS011;51319;52.162;5.302;2022-08-01T05:52:58;3.00;;;2.70;;
43998;SDS011;51319;52.162;5.302;2022-08-01T05:55:24;3.80;;;2.25;;
43998;SDS011;51319;52.162;5.302;2022-08-01T05:57:50;4.13;;;2.63;;
43998;SDS011;51319;52.162;5.302;2022-08-01T06:00:17;6.72;;;2.50;;
43998;SDS011;51319;52.162;5.302;2022-08-01T06:02:43;3.80;;;2.80;;
43998;SDS011;51319;52.162;5.302;2022-08-01T06:05:12;4.45;;;2.92;;
43998;SDS011;51319;52.162;5.302;2022-08-01T06:07:39;4.85;;;2.72;;
43998;SDS011;51319;52.162;5.302;2022-08-01T06:10:09;5.85;;;2.53;;
43998;SDS011;51319;52.162;5.302;2022-08-01T06:13:50;3.78;;;2.63;;
43998;SDS011;51319;52.162;5.302;2022-08-01T06:16:17;4.03;;;3.08;;
43998;SDS011;51319;52.162;5.302;2022-08-01T06:18:44;7.32;;;3.85;;
43998;SDS011;51319;52.162;5.302;2022-08-01T06:21:10;4.70;;;3.28;;
43998;SDS011;51319;52.162;5.302;2022-08-01T06:23:36;3.45;;;3.13;;
43998;SDS011;51319;52.162;5.302;2022-08-01T06:26:03;55.45;;;39.00;;
43998;SDS011;51319;52.162;5.302;2022-08-01T06:28:29;38.90;;;28.05;;
43998;SDS011;51319;52.162;5.302;2022-08-01T06:31:08;11.23;;;6.65;;
43998;SDS011;51319;52.162;5.302;2022-08-01T06:33:43;19.47;;;13.20;;
43998;SDS011;51319;52.162;5.302;2022-08-01T06:36:09;13.98;;;11.07;;
43998;SDS011;51319;52.162;5.302;2022-08-01T06:38:36;7.70;;;5.07;;
43998;SDS011;51319;52.162;5.302;2022-08-01T06:41:03;6.10;;;3.55;;
43998;SDS011;51319;52.162;5.302;2022-08-01T06:43:29;5.35;;;2.83;;
43998;SDS011;51319;52.162;5.302;2022-08-01T06:45:56;5.13;;;2.30;;
43998;SDS011;51319;52.162;5.302;2022-08-01T06:48:33;2.08;;;1.83;;
43998;SDS011;51319;52.162;5.302;2022-08-01T06:51:05;3.03;;;2.28;;
43998;SDS011;51319;52.162;5.302;2022-08-01T06:53:35;2.00;;;1.90;;
43998;SDS011;51319;52.162;5.302;2022-08-01T06:56:02;2.72;;;2.30;;
43998;SDS011;51319;52.162;5.302;2022-08-01T06:58:32;5.82;;;2.38;;
43998;SDS011;51319;52.162;5.302;2022-08-01T07:09:04;3.05;;;2.45;;
43998;SDS011;51319;52.162;5.302;2022-08-01T07:11:44;7.13;;;3.65;;
43998;SDS011;51319;52.162;5.302;2022-08-01T07:15:23;11.43;;;3.70;;
43998;SDS011;51319;52.162;5.302;2022-08-01T07:29:02;15.32;;;4.03;;
43998;SDS011;51319;52.162;5.302;2022-08-01T07:31:37;21.05;;;4.40;;
43998;SDS011;51319;52.162;5.302;2022-08-01T07:34:04;25.70;;;5.30;;
43998;SDS011;51319;52.162;5.302;2022-08-01T07:36:31;23.88;;;4.32;;
43998;SDS011;51319;52.162;5.302;2022-08-01T07:38:57;24.25;;;4.32;;
43998;SDS011;51319;52.162;5.302;2022-08-01T07:41:24;18.80;;;4.05;;
43998;SDS011;51319;52.162;5.302;2022-08-01T07:44:10;25.08;;;4.35;;
43998;SDS011;51319;52.162;5.302;2022-08-01T07:46:36;21.55;;;4.55;;
43998;SDS011;51319;52.162;5.302;2022-08-01T07:49:02;19.67;;;4.18;;
43998;SDS011;51319;52.162;5.302;2022-08-01T07:51:29;24.25;;;4.53;;
43998;SDS011;51319;52.162;5.302;2022-08-01T07:54:06;25.33;;;5.45;;
43998;SDS011;51319;52.162;5.302;2022-08-01T07:56:34;29.70;;;5.15;;
43998;SDS011;51319;52.162;5.302;2022-08-01T07:59:06;18.88;;;4.18;;
43998;SDS011;51319;52.162;5.302;2022-08-01T08:01:35;24.17;;;4.68;;
43998;SDS011;51319;52.162;5.302;2022-08-01T08:04:01;18.67;;;4.40;;
43998;SDS011;51319;52.162;5.302;2022-08-01T08:06:28;16.95;;;3.80;;
43998;SDS011;51319;52.162;5.302;2022-08-01T08:08:54;16.15;;;3.75;;
43998;SDS011;51319;52.162;5.302;2022-08-01T08:11:20;12.88;;;3.22;;
43998;SDS011;51319;52.162;5.302;2022-08-01T08:13:46;19.35;;;4.07;;
43998;SDS011;51319;52.162;5.302;2022-08-01T08:16:13;15.52;;;3.60;;
43998;SDS011;51319;52.162;5.302;2022-08-01T08:26:38;15.20;;;2.92;;
43998;SDS011;51319;52.162;5.302;2022-08-01T08:37:50;13.55;;;3.25;;
43998;SDS011;51319;52.162;5.302;2022-08-01T08:41:25;13.85;;;3.10;;
43998;SDS011;51319;52.162;5.302;2022-08-01T08:44:05;10.85;;;2.70;;
43998;SDS011;51319;52.162;5.302;2022-08-01T09:02:48;9.18;;;2.50;;
43998;SDS011;51319;52.162;5.302;2022-08-01T09:25:49;10.70;;;2.30;;
43998;SDS011;51319;52.162;5.302;2022-08-01T10:03:41;13.35;;;2.33;;
43998;SDS011;51319;52.162;5.302;2022-08-01T10:06:20;11.05;;;2.42;;
43998;SDS011;51319;52.162;5.302;2022-08-01T10:08:50;12.85;;;2.58;;
43998;SDS011;51319;52.162;5.302;2022-08-01T10:11:16;10.80;;;3.15;;
43998;SDS011;51319;52.162;5.302;2022-08-01T10:13:43;10.88;;;2.10;;
43998;SDS011;51319;52.162;5.302;2022-08-01T10:16:10;9.55;;;2.72;;
43998;SDS011;51319;52.162;5.302;2022-08-01T10:18:40;16.90;;;3.08;;
43998;SDS011;51319;52.162;5.302;2022-08-01T10:21:09;11.20;;;2.70;;
43998;SDS011;51319;52.162;5.302;2022-08-01T10:23:37;11.05;;;2.40;;
43998;SDS011;51319;52.162;5.302;2022-08-01T10:26:06;13.00;;;2.80;;
43998;SDS011;51319;52.162;5.302;2022-08-01T10:28:34;14.75;;;2.58;;
43998;SDS011;51319;52.162;5.302;2022-08-01T10:31:04;12.65;;;2.83;;
43998;SDS011;51319;52.162;5.302;2022-08-01T10:33:39;11.00;;;1.98;;
43998;SDS011;51319;52.162;5.302;2022-08-01T10:36:21;10.82;;;2.40;;
43998;SDS011;51319;52.162;5.302;2022-08-01T10:38:50;11.27;;;2.45;;
43998;SDS011;51319;52.162;5.302;2022-08-01T10:41:19;9.05;;;2.47;;
43998;SDS011;51319;52.162;5.302;2022-08-01T10:43:47;8.95;;;2.10;;
43998;SDS011;51319;52.162;5.302;2022-08-01T10:46:13;8.20;;;2.10;;
43998;SDS011;51319;52.162;5.302;2022-08-01T10:48:52;9.60;;;2.10;;
43998;SDS011;51319;52.162;5.302;2022-08-01T10:51:40;7.07;;;1.90;;
43998;SDS011;51319;52.162;5.302;2022-08-01T10:54:19;8.90;;;1.75;;
43998;SDS011;51319;52.162;5.302;2022-08-01T10:56:51;12.82;;;2.15;;
43998;SDS011;51319;52.162;5.302;2022-08-01T10:59:22;11.23;;;2.28;;
43998;SDS011;51319;52.162;5.302;2022-08-01T11:02:12;9.82;;;2.05;;
43998;SDS011;51319;52.162;5.302;2022-08-01T11:51:32;8.52;;;1.67;;
43998;SDS011;51319;52.162;5.302;2022-08-01T11:54:01;5.32;;;1.60;;
43998;SDS011;51319;52.162;5.302;2022-08-01T11:56:27;3.10;;;1.13;;
43998;SDS011;51319;52.162;5.302;2022-08-01T11:58:59;4.60;;;1.17;;
43998;SDS011;51319;52.162;5.302;2022-08-01T12:01:25;5.35;;;1.42;;
43998;SDS011;51319;52.162;5.302;2022-08-01T12:03:55;5.53;;;1.27;;
43998;SDS011;51319;52.162;5.302;2022-08-01T12:06:28;6.30;;;1.58;;
43998;SDS011;51319;52.162;5.302;2022-08-01T12:09:14;8.45;;;1.55;;
43998;SDS011;51319;52.162;5.302;2022-08-01T12:11:47;3.83;;;1.08;;
43998;SDS011;51319;52.162;5.302;2022-08-01T12:14:19;2.58;;;1.10;;
43998;SDS011;51319;52.162;5.302;2022-08-01T12:16:53;3.72;;;1.08;;
43998;SDS011;51319;52.162;5.302;2022-08-01T12:19:20;2.50;;;1.00;;
43998;SDS011;51319;52.162;5.302;2022-08-01T12:22:06;5.30;;;1.17;;
43998;SDS011;51319;52.162;5.302;2022-08-01T12:24:38;4.37;;;1.27;;
43998;SDS011;51319;52.162;5.302;2022-08-01T12:27:07;3.00;;;1.17;;
43998;SDS011;51319;52.162;5.302;2022-08-01T12:29:36;3.35;;;1.05;;
43998;SDS011;51319;52.162;5.302;2022-08-01T12:36:06;4.45;;;1.23;;
43998;SDS011;51319;52.162;5.302;2022-08-01T12:42:38;3.85;;;1.20;;
43998;SDS011;51319;52.162;5.302;2022-08-01T12:45:09;5.93;;;1.38;;
43998;SDS011;51319;52.162;5.302;2022-08-01T13:12:10;2.50;;;1.10;;
43998;SDS011;51319;52.162;5.302;2022-08-01T13:14:37;2.47;;;0.57;;
43998;SDS011;51319;52.162;5.302;2022-08-01T13:17:07;3.08;;;0.70;;
43998;SDS011;51319;52.162;5.302;2022-08-01T13:19:43;3.58;;;0.73;;
43998;SDS011;51319;52.162;5.302;2022-08-01T13:22:10;6.35;;;0.98;;
43998;SDS011;51319;52.162;5.302;2022-08-01T13:24:37;3.30;;;1.00;;
43998;SDS011;51319;52.162;5.302;2022-08-01T13:27:03;1.65;;;0.55;;
43998;SDS011;51319;52.162;5.302;2022-08-01T13:29:37;2.35;;;0.70;;
43998;SDS011;51319;52.162;5.302;2022-08-01T13:32:15;2.50;;;0.80;;
43998;SDS011;51319;52.162;5.302;2022-08-01T13:35:05;2.55;;;0.60;;
43998;SDS011;51319;52.162;5.302;2022-08-01T13:37:34;5.70;;;0.98;;
43998;SDS011;51319;52.162;5.302;2022-08-01T13:40:04;1.77;;;0.60;;
43998;SDS011;51319;52.162;5.302;2022-08-01T13:42:31;2.08;;;0.68;;
43998;SDS011;51319;52.162;5.302;2022-08-01T13:44:58;2.22;;;0.70;;
43998;SDS011;51319;52.162;5.302;2022-08-01T13:47:24;2.10;;;0.50;;
43998;SDS011;51319;52.162;5.302;2022-08-01T13:49:57;1.88;;;0.80;;
43998;SDS011;51319;52.162;5.302;2022-08-01T13:52:26;3.47;;;0.88;;
43998;SDS011;51319;52.162;5.302;2022-08-01T13:54:52;2.92;;;0.63;;
43998;SDS011;51319;52.162;5.302;2022-08-01T13:57:18;4.22;;;0.60;;
43998;SDS011;51319;52.162;5.302;2022-08-01T13:59:44;6.57;;;0.90;;
43998;SDS011;51319;52.162;5.302;2022-08-01T14:02:11;4.07;;;0.70;;
43998;SDS011;51319;52.162;5.302;2022-08-01T14:04:37;1.15;;;0.77;;
43998;SDS011;51319;52.162;5.302;2022-08-01T14:07:06;5.45;;;0.68;;
43998;SDS011;51319;52.162;5.302;2022-08-01T14:16:45;3.58;;;0.90;;
43998;SDS011;51319;52.162;5.302;2022-08-01T14:41:25;5.38;;;0.90;;
43998;SDS011;51319;52.162;5.302;2022-08-01T14:47:30;6.57;;;1.25;;
43998;SDS011;51319;52.162;5.302;2022-08-01T14:49:56;5.18;;;0.68;;
43998;SDS011;51319;52.162;5.302;2022-08-01T14:52:22;3.47;;;0.82;;
43998;SDS011;51319;52.162;5.302;2022-08-01T14:54:49;1.88;;;0.50;;
43998;SDS011;51319;52.162;5.302;2022-08-01T14:57:15;3.78;;;0.95;;
43998;SDS011;51319;52.162;5.302;2022-08-01T14:59:52;4.40;;;0.70;;
43998;SDS011;51319;52.162;5.302;2022-08-01T15:12:49;4.00;;;0.82;;
43998;SDS011;51319;52.162;5.302;2022-08-01T15:15:31;4.70;;;1.10;;
43998;SDS011;51319;52.162;5.302;2022-08-01T15:17:57;3.13;;;0.65;;
43998;SDS011;51319;52.162;5.302;2022-08-01T15:46:29;7.32;;;1.55;;
43998;SDS011;51319;52.162;5.302;2022-08-01T15:53:04;2.55;;;0.80;;
43998;SDS011;51319;52.162;5.302;2022-08-01T15:55:31;10.02;;;5.53;;
43998;SDS011;51319;52.162;5.302;2022-08-01T15:58:02;3.35;;;1.50;;
43998;SDS011;51319;52.162;5.302;2022-08-01T16:08:39;7.32;;;1.23;;
43998;SDS011;51319;52.162;5.302;2022-08-01T16:11:05;3.65;;;1.10;;
43998;SDS011;51319;52.162;5.302;2022-08-01T16:13:31;4.80;;;1.20;;
43998;SDS011;51319;52.162;5.302;2022-08-01T16:15:58;6.15;;;1.25;;
43998;SDS011;51319;52.162;5.302;2022-08-01T16:18:24;6.22;;;1.52;;
43998;SDS011;51319;52.162;5.302;2022-08-01T16:21:08;4.32;;;1.00;;
43998;SDS011;51319;52.162;5.302;2022-08-01T16:23:58;5.57;;;1.20;;
43998;SDS011;51319;52.162;5.302;2022-08-01T16:26:36;9.43;;;1.65;;
43998;SDS011;51319;52.162;5.302;2022-08-01T16:29:11;3.55;;;1.00;;
43998;SDS011;51319;52.162;5.302;2022-08-01T16:31:59;4.00;;;0.70;;
43998;SDS011;51319;52.162;5.302;2022-08-01T16:34:44;7.15;;;0.90;;
43998;SDS011;51319;52.162;5.302;2022-08-01T16:48:29;4.63;;;1.50;;
43998;SDS011;51319;52.162;5.302;2022-08-01T16:55:38;4.50;;;0.82;;
43998;SDS011;51319;52.162;5.302;2022-08-01T16:58:16;5.13;;;1.30;;
43998;SDS011;51319;52.162;5.302;2022-08-01T17:00:44;8.60;;;1.23;;
43998;SDS011;51319;52.162;5.302;2022-08-01T17:03:22;7.80;;;1.17;;
43998;SDS011;51319;52.162;5.302;2022-08-01T17:06:14;5.18;;;1.25;;
43998;SDS011;51319;52.162;5.302;2022-08-01T17:08:41;3.47;;;1.20;;
43998;SDS011;51319;52.162;5.302;2022-08-01T17:14:54;6.97;;;1.95;;
43998;SDS011;51319;52.162;5.302;2022-08-01T17:17:28;6.22;;;2.00;;
43998;SDS011;51319;52.162;5.302;2022-08-01T17:19:57;5.00;;;1.33;;
43998;SDS011;51319;52.162;5.302;2022-08-01T17:22:26;3.97;;;1.27;;
43998;SDS011;51319;52.162;5.302;2022-08-01T17:24:53;7.05;;;1.63;;
43998;SDS011;51319;52.162;5.302;2022-08-01T17:31:32;3.22;;;1.15;;
43998;SDS011;51319;52.162;5.302;2022-08-01T17:37:00;5.40;;;1.30;;
43998;SDS011;51319;52.162;5.302;2022-08-01T17:39:27;9.80;;;1.42;;
43998;SDS011;51319;52.162;5.302;2022-08-01T17:49:23;6.63;;;2.55;;
43998;SDS011;51319;52.162;5.302;2022-08-01T17:52:10;6.90;;;1.77;;
43998;SDS011;51319;52.162;5.302;2022-08-01T17:54:37;6.43;;;1.20;;
43998;SDS011;51319;52.162;5.302;2022-08-01T18:05:11;6.65;;;1.20;;
43998;SDS011;51319;52.162;5.302;2022-08-01T18:07:40;5.93;;;1.27;;
43998;SDS011;51319;52.162;5.302;2022-08-01T18:10:28;4.60;;;1.42;;
43998;SDS011;51319;52.162;5.302;2022-08-01T18:12:56;9.10;;;1.80;;
43998;SDS011;51319;52.162;5.302;2022-08-01T18:15:45;9.45;;;1.63;;
43998;SDS011;51319;52.162;5.302;2022-08-01T18:18:11;5.82;;;1.38;;
43998;SDS011;51319;52.162;5.302;2022-08-01T18:20:42;5.97;;;1.10;;
43998;SDS011;51319;52.162;5.302;2022-08-01T18:23:11;4.63;;;1.15;;
43998;SDS011;51319;52.162;5.302;2022-08-01T18:25:37;5.88;;;1.65;;
43998;SDS011;51319;52.162;5.302;2022-08-01T18:28:05;5.68;;;1.65;;
43998;SDS011;51319;52.162;5.302;2022-08-01T18:30:57;8.00;;;1.45;;
43998;SDS011;51319;52.162;5.302;2022-08-01T18:33:24;6.32;;;1.05;;
43998;SDS011;51319;52.162;5.302;2022-08-01T18:35:50;9.20;;;1.58;;
43998;SDS011;51319;52.162;5.302;2022-08-01T18:38:19;5.25;;;1.17;;
43998;SDS011;51319;52.162;5.302;2022-08-01T18:40:49;8.52;;;1.13;;
43998;SDS011;51319;52.162;5.302;2022-08-01T18:43:16;5.25;;;1.30;;
43998;SDS011;51319;52.162;5.302;2022-08-01T18:45:42;4.95;;;0.90;;
43998;SDS011;51319;52.162;5.302;2022-08-01T18:48:10;9.70;;;2.10;;
43998;SDS011;51319;52.162;5.302;2022-08-01T18:53:27;8.43;;;1.45;;
43998;SDS011;51319;52.162;5.302;2022-08-01T18:56:16;6.88;;;1.60;;
43998;SDS011;51319;52.162;5.302;2022-08-01T19:48:59;4.20;;;1.80;;
43998;SDS011;51319;52.162;5.302;2022-08-01T19:55:44;5.72;;;2.00;;
43998;SDS011;51319;52.162;5.302;2022-08-01T19:59:25;6.50;;;2.25;;
43998;SDS011;51319;52.162;5.302;2022-08-01T20:01:55;9.88;;;3.28;;
43998;SDS011;51319;52.162;5.302;2022-08-01T20:04:23;12.07;;;4.15;;
43998;SDS011;51319;52.162;5.302;2022-08-01T20:06:50;8.88;;;3.55;;
43998;SDS011;51319;52.162;5.302;2022-08-01T20:09:17;8.57;;;2.55;;
43998;SDS011;51319;52.162;5.302;2022-08-01T20:11:58;6.32;;;1.98;;
43998;SDS011;51319;52.162;5.302;2022-08-01T20:15:43;6.43;;;1.80;;
43998;SDS011;51319;52.162;5.302;2022-08-01T20:18:16;7.75;;;1.88;;
43998;SDS011;51319;52.162;5.302;2022-08-01T20:20:43;5.53;;;1.42;;
43998;SDS011;51319;52.162;5.302;2022-08-01T20:23:15;7.15;;;1.70;;
43998;SDS011;51319;52.162;5.302;2022-08-01T20:26:52;6.72;;;1.70;;
43998;SDS011;51319;52.162;5.302;2022-08-01T20:30:11;4.95;;;1.90;;
43998;SDS011;51319;52.162;5.302;2022-08-01T20:33:08;7.28;;;2.10;;
43998;SDS011;51319;52.162;5.302;2022-08-01T20:35:41;4.60;;;1.63;;
43998;SDS011;51319;52.162;5.302;2022-08-01T20:38:57;7.28;;;1.55;;
43998;SDS011;51319;52.162;5.302;2022-08-01T20:41:26;4.53;;;1.55;;
43998;SDS011;51319;52.162;5.302;2022-08-01T20:43:53;8.32;;;1.80;;
43998;SDS011;51319;52.162;5.302;2022-08-01T20:46:36;7.65;;;1.63;;
43998;SDS011;51319;52.162;5.302;2022-08-01T20:49:04;6.65;;;1.77;;
43998;SDS011;51319;52.162;5.302;2022-08-01T20:51:33;6.13;;;1.83;;
43998;SDS011;51319;52.162;5.302;2022-08-01T20:54:10;10.48;;;2.17;;
43998;SDS011;51319;52.162;5.302;2022-08-01T20:57:04;9.95;;;2.00;;
43998;SDS011;51319;52.162;5.302;2022-08-01T21:05:26;9.38;;;1.90;;
43998;SDS011;51319;52.162;5.302;2022-08-01T21:08:06;5.85;;;1.67;;
43998;SDS011;51319;52.162;5.302;2022-08-01T21:10:39;5.45;;;1.67;;
43998;SDS011;51319;52.162;5.302;2022-08-01T21:13:07;7.05;;;2.08;;
43998;SDS011;51319;52.162;5.302;2022-08-01T21:15:56;7.80;;;2.20;;
43998;SDS011;51319;52.162;5.302;2022-08-01T21:18:53;7.07;;;1.90;;
43998;SDS011;51319;52.162;5.302;2022-08-01T21:21:47;7.13;;;1.90;;
43998;SDS011;51319;52.162;5.302;2022-08-01T21:24:51;5.57;;;2.65;;
43998;SDS011;51319;52.162;5.302;2022-08-01T21:27:24;7.85;;;2.72;;
43998;SDS011;51319;52.162;5.302;2022-08-01T21:29:59;14.05;;;2.03;;
43998;SDS011;51319;52.162;5.302;2022-08-01T21:32:31;8.38;;;1.75;;
43998;SDS011;51319;52.162;5.302;2022-08-01T21:35:00;6.97;;;1.65;;
43998;SDS011;51319;52.162;5.302;2022-08-01T21:37:28;4.10;;;1.77;;
43998;SDS011;51319;52.162;5.302;2022-08-01T21:39:56;5.28;;;2.08;;
43998;SDS011;51319;52.162;5.302;2022-08-01T21:44:54;7.00;;;1.65;;
43998;SDS011;51319;52.162;5.302;2022-08-01T21:47:26;8.15;;;2.03;;
43998;SDS011;51319;52.162;5.302;2022-08-01T21:49:53;11.38;;;1.95;;
43998;SDS011;51319;52.162;5.302;2022-08-01T21:52:24;6.63;;;1.83;;
43998;SDS011;51319;52.162;5.302;2022-08-01T21:55:04;6.47;;;1.75;;
43998;SDS011;51319;52.162;5.302;2022-08-01T22:00:26;9.02;;;2.22;;
43998;SDS011;51319;52.162;5.302;2022-08-01T22:05:36;7.95;;;2.55;;
43998;SDS011;51319;52.162;5.302;2022-08-01T22:08:32;7.82;;;2.70;;
43998;SDS011;51319;52.162;5.302;2022-08-01T22:11:10;6.55;;;1.73;;
43998;SDS011;51319;52.162;5.302;2022-08-01T22:13:39;8.57;;;2.33;;
43998;SDS011;51319;52.162;5.302;2022-08-01T22:16:09;3.17;;;1.55;;
43998;SDS011;51319;52.162;5.302;2022-08-01T22:18:40;7.75;;;2.05;;
43998;SDS011;51319;52.162;5.302;2022-08-01T22:21:07;11.07;;;3.00;;
43998;SDS011;51319;52.162;5.302;2022-08-01T22:23:34;9.25;;;2.00;;
43998;SDS011;51319;52.162;5.302;2022-08-01T22:26:27;4.85;;;1.63;;
43998;SDS011;51319;52.162;5.302;2022-08-01T22:28:54;6.72;;;1.73;;
43998;SDS011;51319;52.162;5.302;2022-08-01T22:31:21;4.80;;;2.08;;
43998;SDS011;51319;52.162;5.302;2022-08-01T22:33:48;7.20;;;2.22;;
43998;SDS011;51319;52.162;5.302;2022-08-01T22:36:16;6.00;;;1.63;;
43998;SDS011;51319;52.162;5.302;2022-08-01T22:38:44;6.68;;;1.75;;
43998;SDS011;51319;52.162;5.302;2022-08-01T22:41:15;4.85;;;1.58;;
43998;SDS011;51319;52.162;5.302;2022-08-01T22:44:02;8.75;;;2.08;;
43998;SDS011;51319;52.162;5.302;2022-08-01T22:46:44;5.00;;;1.60;;
43998;SDS011;51319;52.162;5.302;2022-08-01T22:52:28;7.93;;;1.80;;
43998;SDS011;51319;52.162;5.302;2022-08-01T22:55:06;5.32;;;1.48;;
43998;SDS011;51319;52.162;5.302;2022-08-01T22:57:36;7.00;;;1.90;;
43998;SDS011;51319;52.162;5.302;2022-08-01T23:00:09;5.10;;;1.55;;
43998;SDS011;51319;52.162;5.302;2022-08-01T23:02:38;5.13;;;1.80;;
43998;SDS011;51319;52.162;5.302;2022-08-01T23:05:10;6.45;;;1.92;;
43998;SDS011;51319;52.162;5.302;2022-08-01T23:07:38;4.85;;;1.80;;
43998;SDS011;51319;52.162;5.302;2022-08-01T23:10:14;6.65;;;2.00;;
43998;SDS011;51319;52.162;5.302;2022-08-01T23:12:40;4.80;;;1.70;;
43998;SDS011;51319;52.162;5.302;2022-08-01T23:15:08;6.78;;;2.03;;
43998;SDS011;51319;52.162;5.302;2022-08-01T23:17:35;10.85;;;1.98;;
43998;SDS011;51319;52.162;5.302;2022-08-01T23:20:03;4.35;;;1.77;;
43998;SDS011;51319;52.162;5.302;2022-08-01T23:22:32;3.65;;;1.45;;
43998;SDS011;51319;52.162;5.302;2022-08-01T23:25:02;5.70;;;1.63;;
43998;SDS011;51319;52.162;5.302;2022-08-01T23:27:36;4.70;;;1.27;;
43998;SDS011;51319;52.162;5.302;2022-08-01T23:30:29;4.03;;;1.33;;
43998;SDS011;51319;52.162;5.302;2022-08-01T23:32:56;2.42;;;1.23;;
43998;SDS011;51319;52.162;5.302;2022-08-01T23:35:23;5.22;;;1.70;;
43998;SDS011;51319;52.162;5.302;2022-08-01T23:37:50;6.68;;;1.65;;
43998;SDS011;51319;52.162;5.302;2022-08-01T23:40:16;6.40;;;1.92;;